createdAt,value
2023-05-19T00:04:33.530Z,9.47
2023-05-19T00:14:36.879Z,9.45
2023-05-19T00:24:40.959Z,9.37
2023-05-19T00:34:43.769Z,9.38
2023-05-19T00:44:47.932Z,9.21
2023-05-19T00:54:52.576Z,9.20
2023-05-19T01:04:58.168Z,9.05
2023-05-19T01:15:01.204Z,8.95
2023-05-19T01:25:32.743Z,8.85
2023-05-19T01:35:38.942Z,8.55
2023-05-19T01:45:43.045Z,8.59
2023-05-19T01:55:50.065Z,8.57
2023-05-19T02:06:00.221Z,8.43
2023-05-19T02:16:06.861Z,8.30
2023-05-19T02:26:09.817Z,8.24
2023-05-19T02:36:14.536Z,8.00
2023-05-19T02:46:17.256Z,8.06
2023-05-19T02:56:21.682Z,8.17
2023-05-19T03:06:24.414Z,8.22
2023-05-19T03:16:28.571Z,7.98
2023-05-19T03:26:31.502Z,8.07
2023-05-19T03:36:39.650Z,7.87
2023-05-19T03:46:42.444Z,7.78
2023-05-19T03:56:47.028Z,7.86
2023-05-19T04:06:49.841Z,7.91
2023-05-19T04:16:54.188Z,8.04
2023-05-19T04:26:56.987Z,8.07
2023-05-19T04:37:01.312Z,8.21
2023-05-19T04:47:06.208Z,8.50
2023-05-19T04:57:10.682Z,8.95
2023-05-19T05:07:13.365Z,9.26
2023-05-19T05:17:18.187Z,9.63
2023-05-19T05:27:20.962Z,9.93
2023-05-19T05:37:25.009Z,10.39
2023-05-19T05:47:28.279Z,10.64
2023-05-19T05:57:35.287Z,10.94
2023-05-19T06:07:37.979Z,11.32
2023-05-19T06:17:42.020Z,11.70
2023-05-19T06:27:44.711Z,12.20
2023-05-19T06:37:48.750Z,12.86
2023-05-19T06:47:51.439Z,13.39
2023-05-19T06:57:55.486Z,13.82
2023-05-19T07:07:58.127Z,14.20
2023-05-19T07:18:02.226Z,14.54
2023-05-19T07:28:05.101Z,14.71
2023-05-19T07:38:09.142Z,15.07
2023-05-19T07:48:11.890Z,15.30
2023-05-19T07:58:16.823Z,15.40
2023-05-19T08:08:19.574Z,15.67
2023-05-19T08:18:23.615Z,16.10
2023-05-19T08:28:26.516Z,16.17
2023-05-19T08:38:31.062Z,16.57
2023-05-19T08:48:36.122Z,16.75
2023-05-19T08:58:43.951Z,16.95
2023-05-19T09:08:47.143Z,17.70
2023-05-19T09:18:58.665Z,17.92
2023-05-19T09:29:02.243Z,18.29
2023-05-19T09:39:14.267Z,18.43
2023-05-19T09:49:21.972Z,18.83
2023-05-19T09:59:29.774Z,19.35
2023-05-19T10:09:37.232Z,19.73
2023-05-19T10:19:42.070Z,20.13
2023-05-19T10:29:54.071Z,20.56
2023-05-19T10:39:59.018Z,20.96
2023-05-19T10:50:02.011Z,21.10
2023-05-19T11:00:30.043Z,21.61
2023-05-19T11:10:33.460Z,21.94
2023-05-19T11:20:40.798Z,22.81
2023-05-19T11:30:45.531Z,24.66
2023-05-19T11:40:53.622Z,29.09
2023-05-19T11:50:56.762Z,31.01
2023-05-19T12:01:05.023Z,33.88
2023-05-19T12:11:07.867Z,34.57
2023-05-19T12:21:12.449Z,36.08
2023-05-19T12:31:15.152Z,31.42
2023-05-19T12:41:19.391Z,33.45
2023-05-19T12:51:22.239Z,34.82
2023-05-19T13:01:26.714Z,30.86
2023-05-19T13:11:29.930Z,27.47
2023-05-19T13:21:33.935Z,28.82
2023-05-19T13:31:36.610Z,28.08
2023-05-19T13:41:40.690Z,28.11
2023-05-19T13:51:44.566Z,27.20
2023-05-19T14:01:49.173Z,29.13
2023-05-19T14:11:52.029Z,24.18
2023-05-19T14:21:56.061Z,25.78
2023-05-19T14:31:58.832Z,24.89
2023-05-19T14:42:02.915Z,26.19
2023-05-19T14:52:06.034Z,25.95
2023-05-19T15:02:11.538Z,23.22
2023-05-19T15:12:14.262Z,23.70
2023-05-19T15:22:18.396Z,25.18
2023-05-19T15:32:21.212Z,25.32
2023-05-19T15:42:26.221Z,25.79
2023-05-19T15:52:29.268Z,25.32
2023-05-19T16:02:33.601Z,24.74
2023-05-19T16:12:36.552Z,24.21
2023-05-19T16:22:40.991Z,23.99
2023-05-19T16:32:43.766Z,24.01
2023-05-19T16:42:47.862Z,23.65
2023-05-19T16:52:50.617Z,23.15
2023-05-19T17:02:54.728Z,23.23
2023-05-19T17:12:57.443Z,22.85
2023-05-19T17:23:01.573Z,21.19
2023-05-19T17:33:04.345Z,20.22
2023-05-19T17:43:08.568Z,20.41
2023-05-19T17:53:11.362Z,20.35
2023-05-19T18:03:16.060Z,20.64
2023-05-19T18:13:18.822Z,20.60
2023-05-19T18:23:22.779Z,19.65
2023-05-19T18:33:26.806Z,19.08
2023-05-19T18:43:32.413Z,18.42
2023-05-19T18:53:35.601Z,17.90
2023-05-19T19:03:41.835Z,17.41
2023-05-19T19:13:44.703Z,17.03
2023-05-19T19:23:48.964Z,16.81
2023-05-19T19:33:51.743Z,16.37
2023-05-19T19:43:55.722Z,16.14
2023-05-19T19:53:58.684Z,15.85
2023-05-19T20:04:02.725Z,15.73
2023-05-19T20:14:05.559Z,15.41
2023-05-19T20:24:09.691Z,15.23
2023-05-19T20:34:12.456Z,15.01
2023-05-19T20:44:16.889Z,14.89
2023-05-19T20:54:20.196Z,14.79
2023-05-19T21:04:24.531Z,14.77
2023-05-19T21:14:27.277Z,14.67
2023-05-19T21:24:31.446Z,14.54
2023-05-19T21:34:34.110Z,14.42
2023-05-19T21:44:38.269Z,14.39
2023-05-19T21:54:41.064Z,14.32
2023-05-19T22:04:45.137Z,14.15
2023-05-19T22:14:47.825Z,14.06
2023-05-19T22:24:51.844Z,14.01
2023-05-19T22:34:54.595Z,13.91
2023-05-19T22:44:58.782Z,13.90
2023-05-19T22:55:01.426Z,13.80
2023-05-19T23:05:05.846Z,13.68
2023-05-19T23:15:09.603Z,13.47
2023-05-19T23:25:13.637Z,13.46
2023-05-19T23:35:20.001Z,13.47
2023-05-19T23:45:24.032Z,13.54
2023-05-19T23:55:26.774Z,13.64
